createdAt,value
2019-03-19T00:01:25.897Z,101047.53
2019-03-19T00:03:53.327Z,101051.81
2019-03-19T00:06:20.831Z,101056.17
2019-03-19T00:08:48.332Z,101048.64
2019-03-19T00:11:15.727Z,101050.32
2019-03-19T00:13:43.172Z,101053.23
2019-03-19T00:16:10.542Z,101054.02
2019-03-19T00:18:38.959Z,101058.43
2019-03-19T00:21:06.326Z,101068.13
2019-03-19T00:23:33.796Z,101074.11
2019-03-19T00:26:01.666Z,101075.88
2019-03-19T00:28:31.005Z,101078.52
2019-03-19T00:30:58.386Z,101080.80
2019-03-19T00:33:27.199Z,101076.84
2019-03-19T00:35:54.568Z,101085.95
2019-03-19T00:38:22.249Z,101084.74
2019-03-19T00:40:49.607Z,101095.55
2019-03-19T00:43:17.022Z,101092.16
2019-03-19T00:45:44.477Z,101099.50
2019-03-19T00:48:14.996Z,101103.48
2019-03-19T00:50:43.541Z,101101.77
2019-03-19T00:53:13.497Z,101099.13
2019-03-19T00:55:41.240Z,101101.18
2019-03-19T00:58:08.711Z,101103.41
2019-03-19T01:00:36.141Z,101102.36
2019-03-19T01:03:03.646Z,101110.66
2019-03-19T01:05:31.111Z,101114.30
2019-03-19T01:08:01.686Z,101115.02
2019-03-19T01:10:29.119Z,101119.00
2019-03-19T01:12:56.491Z,101125.16
2019-03-19T01:15:24.191Z,101132.88
2019-03-19T01:17:51.571Z,101133.25
2019-03-19T01:20:19.071Z,101120.64
2019-03-19T01:22:46.416Z,101118.55
2019-03-19T01:25:13.936Z,101113.47
2019-03-19T01:27:41.326Z,101115.86
2019-03-19T01:30:09.716Z,101105.38
2019-03-19T01:32:37.121Z,101103.16
2019-03-19T01:35:04.914Z,101105.55
2019-03-19T01:37:32.392Z,101112.42
2019-03-19T01:39:59.841Z,101111.37
2019-03-19T01:42:27.235Z,101111.50
2019-03-19T01:44:56.758Z,101112.92
2019-03-19T01:47:24.667Z,101109.82
2019-03-19T01:49:52.147Z,101110.61
2019-03-19T01:52:19.550Z,101113.72
2019-03-19T01:54:47.023Z,101118.24
2019-03-19T01:57:16.413Z,101115.14
2019-03-19T01:59:43.896Z,101115.14
2019-03-19T02:02:11.357Z,101133.33
2019-03-19T02:04:38.857Z,101142.77
2019-03-19T02:07:06.258Z,101140.09
2019-03-19T02:09:33.767Z,101138.12
2019-03-19T02:12:01.157Z,101135.19
2019-03-19T02:14:28.604Z,101136.02
2019-03-19T02:16:55.998Z,101138.91
2019-03-19T02:19:23.493Z,101141.92
2019-03-19T02:21:50.933Z,101156.09
2019-03-19T02:24:18.368Z,101152.98
2019-03-19T02:26:45.758Z,101153.71
2019-03-19T02:29:13.458Z,101151.11
2019-03-19T02:31:40.854Z,101152.08
2019-03-19T02:34:08.254Z,101154.12
2019-03-19T02:36:35.687Z,101149.55
2019-03-19T02:39:03.702Z,101151.64
2019-03-19T02:41:31.130Z,101166.67
2019-03-19T02:43:59.633Z,101168.02
2019-03-19T02:46:29.972Z,101168.93
2019-03-19T02:48:57.410Z,101169.51
2019-03-19T02:51:24.871Z,101163.89
2019-03-19T02:53:52.270Z,101168.75
2019-03-19T02:56:31.989Z,101170.01
2019-03-19T02:58:49.146Z,101169.59
2019-03-19T03:01:16.587Z,101173.72
2019-03-19T03:03:44.005Z,101178.76
2019-03-19T03:06:11.453Z,101174.56
2019-03-19T03:08:38.901Z,101181.47
2019-03-19T03:11:06.348Z,101186.83
2019-03-19T03:13:33.785Z,101192.94
2019-03-19T03:16:01.228Z,101191.83
2019-03-19T03:18:28.874Z,101189.54
2019-03-19T03:20:56.459Z,101193.36
2019-03-19T03:23:23.867Z,101194.62
2019-03-19T03:25:51.779Z,101197.94
2019-03-19T03:28:22.133Z,101192.17
2019-03-19T03:30:49.627Z,101196.41
2019-03-19T03:33:17.095Z,101204.62
2019-03-19T03:35:47.081Z,101207.61
2019-03-19T03:38:14.533Z,101204.32
2019-03-19T03:40:41.967Z,101208.63
2019-03-19T03:43:09.374Z,101207.91
2019-03-19T03:45:36.820Z,101204.85
2019-03-19T03:48:04.406Z,101208.91
2019-03-19T03:50:31.901Z,101208.44
2019-03-19T03:52:59.298Z,101209.02
2019-03-19T03:55:26.778Z,101215.02
2019-03-19T03:57:54.194Z,101221.93
2019-03-19T04:00:21.629Z,101214.59
2019-03-19T04:02:49.063Z,101221.62
2019-03-19T04:05:16.674Z,101223.64
2019-03-19T04:07:44.088Z,101221.50
2019-03-19T04:10:11.591Z,101221.31
2019-03-19T04:12:39.029Z,101224.94
2019-03-19T04:15:07.638Z,101229.14
2019-03-19T04:17:35.151Z,101237.81
2019-03-19T04:20:02.646Z,101235.41
2019-03-19T04:22:30.169Z,101246.31
2019-03-19T04:24:57.695Z,101240.59
2019-03-19T04:27:25.154Z,101240.56
2019-03-19T04:29:53.032Z,101235.47
2019-03-19T04:32:20.473Z,101243.76
2019-03-19T04:34:47.933Z,101250.33
2019-03-19T04:37:15.358Z,101255.52
2019-03-19T04:39:42.754Z,101263.45
2019-03-19T04:42:10.168Z,101257.80
2019-03-19T04:44:37.608Z,101263.67
2019-03-19T04:47:05.196Z,101265.31
2019-03-19T04:49:32.707Z,101262.75
2019-03-19T04:52:00.173Z,101267.38
2019-03-19T04:54:28.683Z,101271.88
2019-03-19T04:56:56.254Z,101273.48
2019-03-19T04:59:23.688Z,101262.02
2019-03-19T05:01:51.261Z,101260.72
2019-03-19T05:04:18.792Z,101259.57
2019-03-19T05:06:46.248Z,101261.67
2019-03-19T05:09:13.648Z,101265.50
2019-03-19T05:11:41.187Z,101271.88
2019-03-19T05:14:08.598Z,101267.01
2019-03-19T05:16:38.228Z,101271.53
2019-03-19T05:19:05.887Z,101275.03
2019-03-19T05:21:33.832Z,101269.11
2019-03-19T05:24:01.537Z,101279.17
2019-03-19T05:26:29.268Z,101274.46
2019-03-19T05:28:56.724Z,101276.65
2019-03-19T05:31:24.281Z,101276.02
2019-03-19T05:33:52.315Z,101279.30
2019-03-19T05:36:19.753Z,101283.66
2019-03-19T05:38:47.185Z,101292.95
2019-03-19T05:41:16.540Z,101294.39
2019-03-19T05:43:43.977Z,101303.81
2019-03-19T05:46:11.412Z,101288.98
2019-03-19T05:48:38.841Z,101296.08
2019-03-19T05:51:09.332Z,101295.22
2019-03-19T05:53:36.773Z,101299.28
2019-03-19T05:56:04.285Z,101303.19
2019-03-19T05:58:32.059Z,101301.91
2019-03-19T06:00:59.468Z,101303.76
2019-03-19T06:03:26.967Z,101308.23
2019-03-19T06:05:54.472Z,101304.64
2019-03-19T06:08:22.017Z,101299.48
2019-03-19T06:10:49.664Z,101294.61
2019-03-19T06:13:18.727Z,101297.73
2019-03-19T06:16:37.891Z,101303.21
2019-03-19T06:19:40.673Z,101302.56
2019-03-19T06:26:20.318Z,101320.56
2019-03-19T06:29:31.112Z,101319.50
2019-03-19T06:32:43.781Z,101316.91
2019-03-19T06:35:24.468Z,101324.75
2019-03-19T06:38:02.002Z,101326.36
2019-03-19T06:40:37.494Z,101328.63
2019-03-19T06:43:15.926Z,101331.49
2019-03-19T06:46:27.522Z,101320.23
2019-03-19T06:49:10.195Z,101318.89
2019-03-19T06:51:47.542Z,101319.55
2019-03-19T06:54:33.554Z,101332.69
2019-03-19T06:57:06.432Z,101337.40
2019-03-19T06:59:45.391Z,101357.34
2019-03-19T07:02:18.813Z,101381.82
2019-03-19T07:04:46.197Z,101399.66
2019-03-19T07:07:13.657Z,101408.64
2019-03-19T07:09:41.088Z,101411.34
2019-03-19T07:12:08.513Z,101392.23
2019-03-19T07:14:36.198Z,101384.18
2019-03-19T07:17:03.712Z,101366.89
2019-03-19T07:19:31.133Z,101356.47
2019-03-19T07:21:58.757Z,101370.79
2019-03-19T07:24:28.318Z,101376.45
2019-03-19T07:26:55.840Z,101385.05
2019-03-19T07:29:23.278Z,101403.22
2019-03-19T07:31:50.672Z,101419.41
2019-03-19T07:34:18.138Z,101424.53
2019-03-19T07:36:45.537Z,101437.65
2019-03-19T07:39:13.027Z,101435.01
2019-03-19T07:41:40.433Z,101417.63
2019-03-19T07:44:07.920Z,101413.59
2019-03-19T07:46:35.367Z,101412.70
2019-03-19T07:49:05.593Z,101409.34
2019-03-19T07:51:33.008Z,101411.16
2019-03-19T07:54:01.722Z,101416.15
2019-03-19T07:56:29.173Z,101422.70
2019-03-19T07:58:56.637Z,101427.87
2019-03-19T08:01:24.767Z,101416.48
2019-03-19T08:03:52.443Z,101404.84
2019-03-19T08:06:19.827Z,101401.22
2019-03-19T08:08:47.307Z,101393.83
2019-03-19T08:11:16.721Z,101388.88
2019-03-19T08:13:44.362Z,101385.73
2019-03-19T08:16:11.832Z,101386.34
2019-03-19T08:18:39.312Z,101391.30
2019-03-19T08:21:06.733Z,101382.44
2019-03-19T08:23:35.112Z,101379.48
2019-03-19T08:26:02.865Z,101382.63
2019-03-19T08:28:30.612Z,101400.98
2019-03-19T08:30:58.282Z,101405.15
2019-03-19T08:33:26.006Z,101403.84
2019-03-19T08:35:53.652Z,101408.48
2019-03-19T08:38:21.135Z,101413.53
2019-03-19T08:40:51.103Z,101416.09
2019-03-19T08:43:20.396Z,101412.09
2019-03-19T08:45:47.972Z,101406.80
2019-03-19T08:48:15.455Z,101422.72
2019-03-19T08:50:42.879Z,101417.38
2019-03-19T08:53:11.420Z,101424.39
2019-03-19T08:55:39.312Z,101425.23
2019-03-19T08:58:09.559Z,101430.98
2019-03-19T09:00:37.353Z,101442.16
2019-03-19T09:03:04.788Z,101450.27
2019-03-19T09:05:32.263Z,101461.13
2019-03-19T09:08:00.042Z,101479.34
2019-03-19T09:10:27.592Z,101481.30
2019-03-19T09:12:54.992Z,101493.45
2019-03-19T09:15:22.538Z,101495.63
2019-03-19T09:17:49.938Z,101496.16
2019-03-19T09:20:18.687Z,101504.45
2019-03-19T09:22:46.478Z,101505.28
2019-03-19T09:25:14.116Z,101507.62
2019-03-19T09:27:41.754Z,101512.41
2019-03-19T09:30:12.084Z,101524.59
2019-03-19T09:32:41.314Z,101526.13
2019-03-19T09:35:09.074Z,101527.02
2019-03-19T09:37:44.746Z,101534.37
2019-03-19T09:40:17.053Z,101532.12
2019-03-19T09:42:49.104Z,101523.99
2019-03-19T09:45:17.534Z,101514.91
2019-03-19T09:47:45.238Z,101517.86
2019-03-19T09:50:13.779Z,101511.35
2019-03-19T09:52:43.996Z,101522.03
2019-03-19T09:55:12.305Z,101514.41
2019-03-19T09:57:39.917Z,101515.53
2019-03-19T10:00:10.131Z,101517.77
2019-03-19T10:02:37.793Z,101527.28
2019-03-19T10:05:05.462Z,101526.22
2019-03-19T10:07:33.056Z,101522.10
2019-03-19T10:10:00.693Z,101516.85
2019-03-19T10:12:28.363Z,101507.38
2019-03-19T10:14:56.094Z,101500.30
2019-03-19T10:17:23.702Z,101526.25
2019-03-19T10:19:51.322Z,101532.27
2019-03-19T10:22:18.881Z,101516.89
2019-03-19T10:24:46.533Z,101516.85
2019-03-19T10:27:15.330Z,101522.92
2019-03-19T10:29:43.339Z,101512.42
2019-03-19T10:32:10.979Z,101512.05
2019-03-19T10:34:38.631Z,101513.82
2019-03-19T10:37:06.288Z,101504.72
2019-03-19T10:39:33.990Z,101507.56
2019-03-19T10:42:01.547Z,101494.56
2019-03-19T10:44:29.322Z,101487.73
2019-03-19T10:46:56.888Z,101506.41
2019-03-19T10:49:24.516Z,101513.74
2019-03-19T10:51:52.109Z,101512.31
2019-03-19T10:54:19.710Z,101515.86
2019-03-19T10:56:47.581Z,101518.95
2019-03-19T10:59:17.087Z,101512.60
2019-03-19T11:01:45.039Z,101499.37
2019-03-19T11:04:14.893Z,101505.09
2019-03-19T11:06:43.151Z,101480.66
2019-03-19T11:09:10.792Z,101488.86
2019-03-19T11:11:38.270Z,101473.37
2019-03-19T11:14:05.901Z,101475.05
2019-03-19T11:16:33.364Z,101492.13
2019-03-19T11:19:00.920Z,101488.52
2019-03-19T11:21:28.554Z,101453.75
2019-03-19T11:23:56.052Z,101456.06
2019-03-19T11:26:23.680Z,101463.76
2019-03-19T11:28:51.418Z,101467.02
2019-03-19T11:31:19.133Z,101468.88
2019-03-19T11:33:47.839Z,101457.45
2019-03-19T11:36:16.893Z,101466.91
2019-03-19T11:38:48.573Z,101480.63
2019-03-19T11:41:16.188Z,101482.52
2019-03-19T11:43:43.933Z,101484.22
2019-03-19T11:46:11.632Z,101483.17
2019-03-19T11:48:39.520Z,101486.61
2019-03-19T11:51:10.571Z,101496.39
2019-03-19T11:53:38.291Z,101496.08
2019-03-19T11:56:06.112Z,101499.45
2019-03-19T11:58:33.953Z,101508.94
2019-03-19T12:01:01.685Z,101511.84
2019-03-19T12:03:29.279Z,101513.25
2019-03-19T12:05:56.921Z,101498.63
2019-03-19T12:08:24.472Z,101506.03
2019-03-19T12:10:52.101Z,101494.12
2019-03-19T12:13:19.741Z,101493.34
2019-03-19T12:15:47.708Z,101489.11
2019-03-19T12:18:15.232Z,101490.30
2019-03-19T12:20:42.847Z,101483.77
2019-03-19T12:23:10.456Z,101490.86
2019-03-19T12:25:38.083Z,101492.85
2019-03-19T12:28:06.252Z,101492.61
2019-03-19T12:30:33.936Z,101496.91
2019-03-19T12:33:01.473Z,101497.97
2019-03-19T12:35:30.713Z,101513.00
2019-03-19T12:37:58.512Z,101513.36
2019-03-19T12:40:36.272Z,101512.33
2019-03-19T12:42:55.632Z,101512.51
2019-03-19T12:45:24.147Z,101512.13
2019-03-19T12:47:51.854Z,101515.98
2019-03-19T12:50:19.520Z,101509.43
2019-03-19T12:52:47.233Z,101505.84
2019-03-19T12:55:14.953Z,101500.22
2019-03-19T12:57:42.480Z,101496.33
2019-03-19T13:00:15.577Z,101479.02
2019-03-19T13:02:43.133Z,101475.39
2019-03-19T13:05:10.815Z,101467.83
2019-03-19T13:07:38.392Z,101480.34
2019-03-19T13:10:07.295Z,101480.55
2019-03-19T13:12:34.852Z,101481.11
2019-03-19T13:15:02.432Z,101480.78
2019-03-19T13:17:30.012Z,101481.51
2019-03-19T13:19:57.552Z,101478.27
2019-03-19T13:22:25.209Z,101488.27
2019-03-19T13:24:53.253Z,101489.18
2019-03-19T13:27:20.892Z,101490.10
2019-03-19T13:29:52.073Z,101493.81
2019-03-19T13:32:19.652Z,101506.05
2019-03-19T13:34:47.394Z,101515.25
2019-03-19T13:37:15.033Z,101514.58
2019-03-19T13:39:42.673Z,101509.89
2019-03-19T13:42:10.392Z,101504.16
2019-03-19T13:44:38.012Z,101509.03
2019-03-19T13:47:05.933Z,101497.23
2019-03-19T13:49:33.752Z,101496.12
2019-03-19T13:52:01.773Z,101483.77
2019-03-19T13:54:29.632Z,101493.64
2019-03-19T13:56:57.532Z,101500.22
2019-03-19T13:59:25.253Z,101505.95
2019-03-19T14:01:53.411Z,101508.20
2019-03-19T14:04:22.302Z,101504.36
2019-03-19T14:06:50.412Z,101501.15
2019-03-19T14:09:18.112Z,101489.23
2019-03-19T14:11:45.692Z,101496.16
2019-03-19T14:14:13.251Z,101500.70
2019-03-19T14:16:40.994Z,101503.61
2019-03-19T14:19:08.552Z,101505.12
2019-03-19T14:21:36.192Z,101498.23
2019-03-19T14:24:03.792Z,101504.34
2019-03-19T14:26:31.455Z,101511.03
2019-03-19T14:28:59.731Z,101505.67
2019-03-19T14:31:30.273Z,101506.87
2019-03-19T14:33:57.871Z,101517.66
2019-03-19T14:36:26.595Z,101520.20
2019-03-19T14:38:55.474Z,101520.48
2019-03-19T14:41:23.192Z,101522.84
2019-03-19T14:43:51.534Z,101529.30
2019-03-19T14:46:19.236Z,101523.03
2019-03-19T14:48:47.011Z,101521.81
2019-03-19T14:51:14.553Z,101522.45
2019-03-19T14:53:42.172Z,101527.98
2019-03-19T14:56:09.827Z,101523.09
2019-03-19T14:58:37.412Z,101524.14
2019-03-19T15:01:05.235Z,101532.19
2019-03-19T15:03:32.812Z,101524.86
2019-03-19T15:06:00.495Z,101522.28
2019-03-19T15:08:28.236Z,101534.02
2019-03-19T15:10:55.774Z,101525.78
2019-03-19T15:13:23.373Z,101527.94
2019-03-19T15:15:51.232Z,101520.84
2019-03-19T15:18:18.932Z,101519.50
2019-03-19T15:20:46.653Z,101514.91
2019-03-19T15:23:14.592Z,101524.11
2019-03-19T15:25:42.533Z,101522.62
2019-03-19T15:28:10.594Z,101530.89
2019-03-19T15:30:38.312Z,101532.42
2019-03-19T15:33:06.013Z,101519.62
2019-03-19T15:35:33.614Z,101515.43
2019-03-19T15:38:01.332Z,101518.86
2019-03-19T15:40:29.134Z,101521.37
2019-03-19T15:42:56.912Z,101523.08
2019-03-19T15:45:24.656Z,101525.38
2019-03-19T15:47:52.615Z,101523.41
2019-03-19T15:50:20.436Z,101533.08
2019-03-19T15:52:48.474Z,101535.89
2019-03-19T15:55:16.472Z,101543.25
2019-03-19T15:57:44.324Z,101546.36
2019-03-19T16:00:14.545Z,101539.91
2019-03-19T16:02:42.307Z,101544.97
2019-03-19T16:05:10.310Z,101543.50
2019-03-19T16:07:38.137Z,101546.42
2019-03-19T16:10:06.149Z,101547.78
2019-03-19T16:12:33.870Z,101551.35
2019-03-19T16:15:02.108Z,101546.94
2019-03-19T16:17:29.853Z,101545.52
2019-03-19T16:19:57.438Z,101543.51
2019-03-19T16:22:25.364Z,101540.41
2019-03-19T16:24:53.047Z,101546.61
2019-03-19T16:27:20.772Z,101553.42
2019-03-19T16:29:48.486Z,101546.13
2019-03-19T16:32:16.347Z,101543.51
2019-03-19T16:34:44.018Z,101547.34
2019-03-19T16:37:11.783Z,101549.48
2019-03-19T16:39:39.662Z,101554.12
2019-03-19T16:42:07.718Z,101547.84
2019-03-19T16:44:35.587Z,101549.73
2019-03-19T16:47:03.729Z,101553.09
2019-03-19T16:49:31.473Z,101569.06
2019-03-19T16:51:59.272Z,101572.58
2019-03-19T16:54:27.263Z,101568.75
2019-03-19T16:56:55.168Z,101576.45
2019-03-19T16:59:22.978Z,101572.91
2019-03-19T17:02:01.090Z,101578.63
2019-03-19T17:04:20.613Z,101588.95
2019-03-19T17:06:48.555Z,101589.60
2019-03-19T17:09:16.507Z,101596.30
2019-03-19T17:11:44.333Z,101600.00
2019-03-19T17:14:12.213Z,101606.86
2019-03-19T17:16:39.953Z,101610.38
2019-03-19T17:19:08.327Z,101613.72
2019-03-19T17:21:40.910Z,101618.84
2019-03-19T17:24:08.648Z,101621.97
2019-03-19T17:26:36.533Z,101626.55
2019-03-19T17:29:04.322Z,101633.53
2019-03-19T17:31:32.257Z,101634.77
2019-03-19T17:34:00.232Z,101641.02
2019-03-19T17:36:30.783Z,101641.02
2019-03-19T17:38:58.833Z,101652.36
2019-03-19T17:41:26.762Z,101652.67
2019-03-19T17:43:54.494Z,101652.22
2019-03-19T17:46:23.502Z,101662.76
2019-03-19T17:54:57.737Z,101660.75
2019-03-19T17:57:41.032Z,101664.16
2019-03-19T18:00:10.748Z,101668.02
2019-03-19T18:02:39.568Z,101678.36
2019-03-19T18:05:07.802Z,101679.52
2019-03-19T18:07:38.910Z,101678.77
2019-03-19T18:10:07.704Z,101681.33
2019-03-19T18:12:36.589Z,101690.96
2019-03-19T18:15:07.028Z,101688.91
2019-03-19T18:17:34.953Z,101690.50
2019-03-19T18:20:03.331Z,101691.53
2019-03-19T18:22:31.032Z,101690.13
2019-03-19T18:24:59.108Z,101691.87
2019-03-19T18:27:27.148Z,101698.11
2019-03-19T18:29:55.601Z,101704.58
2019-03-19T18:32:34.299Z,101697.90
2019-03-19T18:34:53.808Z,101685.09
2019-03-19T18:37:21.678Z,101707.05
2019-03-19T18:39:49.866Z,101698.75
2019-03-19T18:42:17.757Z,101714.09
2019-03-19T18:44:45.935Z,101710.89
2019-03-19T18:47:13.857Z,101708.73
2019-03-19T18:49:41.797Z,101714.17
2019-03-19T18:52:09.683Z,101718.02
2019-03-19T18:54:37.807Z,101713.48
2019-03-19T18:57:05.692Z,101713.77
2019-03-19T18:59:33.575Z,101719.52
2019-03-19T19:02:01.562Z,101727.06
2019-03-19T19:04:29.439Z,101726.23
2019-03-19T19:06:57.307Z,101733.77
2019-03-19T19:09:25.255Z,101733.89
2019-03-19T19:11:53.462Z,101738.61
2019-03-19T19:14:21.462Z,101740.00
2019-03-19T19:16:49.432Z,101743.53
2019-03-19T19:19:20.603Z,101745.34
2019-03-19T19:21:48.803Z,101758.95
2019-03-19T19:24:17.142Z,101756.38
2019-03-19T19:26:45.133Z,101761.91
2019-03-19T19:29:15.212Z,101761.48
2019-03-19T19:31:43.553Z,101761.41
2019-03-19T19:34:11.567Z,101762.23
2019-03-19T19:36:41.958Z,101755.87
2019-03-19T19:39:09.817Z,101764.33
2019-03-19T19:41:38.059Z,101768.31
2019-03-19T19:44:06.212Z,101768.14
2019-03-19T19:46:34.272Z,101772.17
2019-03-19T19:49:13.572Z,101779.63
2019-03-19T19:55:20.053Z,101779.06
2019-03-19T19:57:50.971Z,101781.21
2019-03-19T20:00:19.018Z,101787.09
2019-03-19T20:02:47.111Z,101795.10
2019-03-19T20:05:16.468Z,101791.94
2019-03-19T20:11:38.694Z,101791.30
2019-03-19T20:13:52.702Z,101787.14
2019-03-19T20:17:01.120Z,101798.19
2019-03-19T20:19:32.102Z,101799.81
2019-03-19T20:22:36.331Z,101804.34
2019-03-19T20:25:48.932Z,101809.17
2019-03-19T20:32:32.066Z,101808.45
2019-03-19T20:35:40.797Z,101808.48
2019-03-19T20:38:45.517Z,101813.03
2019-03-19T20:45:29.622Z,101824.50
2019-03-19T20:56:05.295Z,101825.27
2019-03-19T21:02:04.757Z,101827.63
2019-03-19T21:05:41.908Z,101834.19
2019-03-19T21:09:29.921Z,101836.97
2019-03-19T21:15:28.216Z,101845.01
2019-03-19T21:18:01.862Z,101842.21
2019-03-19T21:46:09.939Z,101855.52
2019-03-19T21:55:29.898Z,101864.30
2019-03-19T22:06:46.516Z,101863.31
2019-03-19T22:35:35.267Z,101823.86
2019-03-19T23:02:30.273Z,101849.64
2019-03-19T23:12:25.443Z,101847.81
2019-03-19T23:15:20.782Z,101852.83
2019-03-19T23:22:11.751Z,101853.61
2019-03-19T23:51:27.917Z,101851.30
